Time;durP1;ratioP1;P1;durP2;ratioP2;P2;SDS_P1;SDS_P2;PMS_P1;PMS_P2;Temp;Humidity;BMP_temperature;BMP_pressure;BME280_temperature;BME280_humidity;BME280_pressure;Samples;Min_cycle;Max_cycle;Signal;HPM_P1;HPM_P2
2021/07/31 00:01:01;;;;;;;15.85;14.15;;;21.70;71.90;;;;;;5073757;28;20029;-61
2021/07/31 00:03:27;;;;;;;14.82;12.65;;;21.70;72.20;;;;;;5073766;28;20390;-62
2021/07/31 00:05:53;;;;;;;14.98;13.10;;;21.70;71.90;;;;;;5073779;28;20101;-62
2021/07/31 00:08:19;;;;;;;14.40;11.77;;;21.60;72.00;;;;;;5073580;28;20471;-62
2021/07/31 00:10:45;;;;;;;16.33;13.48;;;21.60;71.80;;;;;;5073606;28;20031;-62
2021/07/31 00:13:10;;;;;;;14.68;12.15;;;21.60;72.00;;;;;;5073680;28;20020;-62
2021/07/31 00:15:36;;;;;;;15.07;12.35;;;21.60;71.80;;;;;;5073737;28;20067;-62
2021/07/31 00:18:02;;;;;;;13.48;12.07;;;21.60;71.80;;;;;;5073943;28;20383;-62
2021/07/31 00:20:27;;;;;;;13.02;11.48;;;21.60;71.60;;;;;;5073699;28;20036;-62
2021/07/31 00:22:53;;;;;;;15.57;13.98;;;21.60;71.60;;;;;;5073724;28;20353;-61
2021/07/31 00:25:19;;;;;;;14.45;12.57;;;21.60;71.80;;;;;;5073639;28;20035;-61
2021/07/31 00:27:45;;;;;;;15.43;11.70;;;21.60;71.60;;;;;;5073376;28;20101;-62
2021/07/31 00:30:10;;;;;;;15.02;12.85;;;21.60;71.50;;;;;;5073271;28;20082;-61
2021/07/31 00:32:36;;;;;;;15.43;12.82;;;21.50;71.70;;;;;;5073244;28;20033;-62
2021/07/31 00:35:02;;;;;;;15.02;13.05;;;21.50;71.90;;;;;;5073388;28;20027;-61
2021/07/31 00:37:27;;;;;;;15.13;12.52;;;21.50;71.80;;;;;;5073237;28;20042;-62
2021/07/31 00:39:53;;;;;;;14.43;12.88;;;21.40;71.90;;;;;;5071967;28;20020;-62
2021/07/31 00:42:19;;;;;;;14.15;12.30;;;21.40;72.00;;;;;;5073131;28;20024;-63
2021/07/31 00:44:45;;;;;;;13.95;12.38;;;21.40;71.90;;;;;;5073089;28;20074;-63
2021/07/31 00:47:11;;;;;;;13.57;11.93;;;21.40;71.90;;;;;;5072958;28;20028;-62
2021/07/31 00:49:37;;;;;;;13.43;12.02;;;21.40;71.90;;;;;;5073018;28;20025;-62
2021/07/31 00:52:03;;;;;;;14.95;12.73;;;21.30;71.80;;;;;;5072924;28;20046;-62
2021/07/31 00:54:30;;;;;;;15.18;12.90;;;21.30;71.90;;;;;;5073002;28;20023;-62
2021/07/31 00:56:57;;;;;;;15.18;13.52;;;21.30;71.90;;;;;;5072768;28;20115;-62
2021/07/31 00:59:23;;;;;;;14.25;12.75;;;21.30;72.10;;;;;;5071559;28;20059;-62
2021/07/31 01:01:49;;;;;;;13.68;11.57;;;21.30;72.30;;;;;;5072384;28;20483;-63
2021/07/31 01:04:14;;;;;;;16.63;14.82;;;21.20;72.10;;;;;;5072551;28;20053;-62
2021/07/31 01:06:40;;;;;;;15.25;13.43;;;21.20;72.50;;;;;;5072434;28;20028;-62
2021/07/31 01:09:06;;;;;;;14.38;12.30;;;21.10;72.60;;;;;;5073053;28;20044;-62
2021/07/31 01:11:33;;;;;;;16.17;12.93;;;21.10;72.80;;;;;;5072561;28;20028;-62
2021/07/31 01:13:59;;;;;;;15.43;13.23;;;21.10;72.90;;;;;;5072897;28;20143;-63
2021/07/31 01:16:25;;;;;;;15.65;13.63;;;21.00;73.10;;;;;;5072444;28;20028;-63
2021/07/31 01:18:51;;;;;;;15.38;13.75;;;21.00;73.90;;;;;;5072126;28;20090;-63
2021/07/31 01:21:37;;;;;;;16.58;13.05;;;20.90;73.30;;;;;;5072240;28;20036;-63
2021/07/31 01:24:04;;;;;;;14.88;13.23;;;20.90;73.60;;;;;;5072165;28;20020;-63
2021/07/31 01:26:30;;;;;;;14.68;12.85;;;20.90;73.40;;;;;;5072260;28;20059;-63
2021/07/31 01:28:56;;;;;;;17.00;13.95;;;20.90;73.40;;;;;;5072147;28;20052;-63
2021/07/31 01:31:22;;;;;;;15.63;13.95;;;20.90;73.50;;;;;;5071980;28;20048;-62
2021/07/31 01:33:48;;;;;;;16.30;13.95;;;20.80;73.60;;;;;;5072127;28;20071;-62
2021/07/31 01:36:13;;;;;;;15.63;13.77;;;20.90;73.90;;;;;;5072079;28;20048;-62
2021/07/31 01:38:39;;;;;;;15.70;13.43;;;20.80;73.80;;;;;;5071905;28;20074;-62
2021/07/31 01:41:05;;;;;;;15.57;12.43;;;20.80;73.80;;;;;;5072069;28;20093;-62
2021/07/31 01:43:30;;;;;;;15.00;12.68;;;20.80;73.60;;;;;;5071939;28;20107;-62
2021/07/31 01:45:56;;;;;;;14.50;11.93;;;20.80;73.60;;;;;;5071879;28;20068;-62
2021/07/31 01:48:22;;;;;;;16.55;14.70;;;20.80;73.60;;;;;;5053846;28;20065;-63
2021/07/31 01:50:47;;;;;;;17.33;15.52;;;20.80;73.80;;;;;;5071690;28;20375;-63
2021/07/31 01:53:13;;;;;;;17.98;14.35;;;20.80;74.10;;;;;;5071911;28;20039;-62
2021/07/31 01:55:38;;;;;;;17.42;14.70;;;20.80;74.00;;;;;;5072079;28;20405;-62
2021/07/31 01:58:04;;;;;;;20.55;16.33;;;20.70;74.30;;;;;;5072410;28;20033;-63
2021/07/31 02:00:30;;;;;;;16.25;14.05;;;20.70;74.50;;;;;;5071709;28;20031;-63
2021/07/31 02:02:55;;;;;;;16.58;14.15;;;20.70;74.40;;;;;;5071457;28;20435;-63
2021/07/31 02:05:21;;;;;;;17.58;15.30;;;20.60;74.60;;;;;;5071530;28;20048;-62
2021/07/31 02:07:46;;;;;;;18.48;16.27;;;20.60;74.80;;;;;;5071513;28;20078;-63
2021/07/31 02:10:12;;;;;;;17.15;14.73;;;20.60;75.10;;;;;;5071649;28;20036;-63
2021/07/31 02:12:38;;;;;;;18.33;16.20;;;20.60;75.20;;;;;;5071379;28;20024;-63
2021/07/31 02:15:04;;;;;;;15.80;13.73;;;20.50;75.50;;;;;;5070980;28;20094;-62
2021/07/31 02:17:31;;;;;;;16.50;13.85;;;20.50;75.40;;;;;;5071253;28;20391;-62
2021/07/31 02:19:57;;;;;;;15.20;13.52;;;20.40;75.50;;;;;;5071537;28;20454;-61
2021/07/31 02:22:23;;;;;;;17.85;14.98;;;20.40;75.50;;;;;;5071437;28;20029;-62
2021/07/31 02:24:49;;;;;;;17.38;15.07;;;20.40;75.60;;;;;;5071385;28;20025;-62
2021/07/31 02:27:15;;;;;;;19.23;15.77;;;20.40;76.00;;;;;;5071400;28;20029;-62
2021/07/31 02:29:40;;;;;;;16.95;14.32;;;20.30;76.20;;;;;;5071408;28;20431;-63
2021/07/31 02:32:07;;;;;;;19.25;16.48;;;20.30;76.20;;;;;;5071016;28;20109;-61
2021/07/31 02:34:32;;;;;;;17.80;15.70;;;20.40;76.40;;;;;;5071316;28;20023;-61
2021/07/31 02:36:58;;;;;;;17.52;14.80;;;20.30;76.40;;;;;;5071476;28;20108;-62
2021/07/31 02:39:24;;;;;;;18.05;16.10;;;20.30;76.40;;;;;;5071627;28;20020;-63
2021/07/31 02:41:49;;;;;;;20.88;16.50;;;20.30;76.60;;;;;;5071170;28;20024;-63
2021/07/31 02:44:15;;;;;;;18.20;15.65;;;20.30;76.70;;;;;;5071392;28;20041;-62
2021/07/31 02:46:40;;;;;;;17.85;15.65;;;20.30;76.70;;;;;;5069771;28;20107;-63
2021/07/31 02:49:06;;;;;;;17.75;15.85;;;20.30;76.70;;;;;;5071305;28;20402;-62
2021/07/31 02:51:32;;;;;;;18.10;15.20;;;20.30;77.00;;;;;;5071157;28;20028;-62
2021/07/31 02:53:57;;;;;;;16.55;14.07;;;20.20;76.80;;;;;;5071133;28;20052;-62
2021/07/31 02:56:23;;;;;;;15.35;13.30;;;20.20;76.70;;;;;;5071008;28;20099;-62
2021/07/31 02:58:50;;;;;;;15.10;13.15;;;20.20;76.70;;;;;;5071098;28;20489;-62
2021/07/31 03:01:16;;;;;;;18.92;15.45;;;20.20;76.60;;;;;;5071027;28;20225;-62
2021/07/31 03:03:41;;;;;;;19.80;16.17;;;20.20;76.80;;;;;;5070832;28;20021;-62
2021/07/31 03:06:07;;;;;;;17.13;15.15;;;20.30;77.10;;;;;;5071015;28;20028;-62
2021/07/31 03:08:33;;;;;;;17.25;14.10;;;20.30;77.00;;;;;;5070984;28;20031;-62
2021/07/31 03:11:01;;;;;;;17.52;15.05;;;20.30;76.90;;;;;;5071055;28;20052;-61
2021/07/31 03:13:27;;;;;;;16.10;14.38;;;20.30;76.90;;;;;;5070949;28;20029;-61
2021/07/31 03:15:53;;;;;;;16.20;14.50;;;20.30;76.80;;;;;;5071013;28;20421;-61
2021/07/31 03:18:22;;;;;;;16.98;13.57;;;20.30;76.70;;;;;;5069791;28;20040;-61
2021/07/31 03:20:49;;;;;;;16.90;13.65;;;20.30;76.90;;;;;;5070850;28;20028;-61
2021/07/31 03:23:17;;;;;;;14.77;12.57;;;20.40;76.70;;;;;;5070892;28;20036;-62
2021/07/31 03:25:43;;;;;;;16.55;13.48;;;20.40;76.40;;;;;;5072363;28;20107;-61
2021/07/31 03:28:08;;;;;;;14.85;12.90;;;20.50;76.30;;;;;;5074463;28;20107;-62
2021/07/31 03:30:42;;;;;;;15.55;12.20;;;20.50;76.10;;;;;;5074230;28;20043;-62
2021/07/31 03:33:09;;;;;;;14.70;12.43;;;20.60;75.80;;;;;;5074413;28;20025;-63
2021/07/31 03:35:35;;;;;;;16.05;12.80;;;20.70;75.60;;;;;;5074279;28;20481;-64
2021/07/31 03:38:00;;;;;;;14.90;12.98;;;20.80;75.40;;;;;;5074416;28;20028;-63
2021/07/31 03:40:26;;;;;;;14.13;11.80;;;20.80;75.10;;;;;;5074264;28;20092;-62
2021/07/31 03:42:52;;;;;;;14.25;11.95;;;20.90;74.90;;;;;;5073962;28;20028;-62
2021/07/31 03:45:17;;;;;;;14.25;10.77;;;21.00;74.70;;;;;;5074200;28;20024;-62
2021/07/31 03:47:43;;;;;;;13.85;10.80;;;21.10;74.30;;;;;;5074023;28;20030;-61
2021/07/31 03:50:09;;;;;;;13.02;11.63;;;21.20;74.10;;;;;;5056105;28;20029;-62
2021/07/31 03:52:35;;;;;;;12.30;10.27;;;21.30;73.70;;;;;;5073803;28;20044;-62
2021/07/31 03:55:00;;;;;;;13.73;9.95;;;21.30;73.40;;;;;;5056201;28;20544;-62
2021/07/31 03:57:28;;;;;;;14.18;11.75;;;21.40;73.20;;;;;;5073965;28;20063;-61
2021/07/31 03:59:53;;;;;;;13.38;11.27;;;21.50;72.60;;;;;;5074388;28;20436;-62
2021/07/31 04:02:19;;;;;;;14.95;12.43;;;21.50;72.50;;;;;;5073639;28;20034;-62
2021/07/31 04:04:44;;;;;;;13.70;11.68;;;21.70;72.10;;;;;;5073607;28;20052;-62
2021/07/31 04:07:10;;;;;;;14.35;11.93;;;21.70;71.90;;;;;;5073624;28;20032;-61
2021/07/31 04:09:36;;;;;;;13.15;10.85;;;21.80;71.60;;;;;;5073710;28;20379;-62
2021/07/31 04:12:01;;;;;;;10.93;9.27;;;21.80;72.00;;;;;;5073553;28;20024;-62
2021/07/31 04:14:29;;;;;;;12.95;9.85;;;21.90;71.30;;;;;;5073484;28;20032;-62
2021/07/31 04:16:55;;;;;;;14.90;10.77;;;22.00;71.10;;;;;;5055704;28;20032;-62
2021/07/31 04:19:20;;;;;;;13.25;10.75;;;22.10;70.80;;;;;;5073478;28;20391;-61
2021/07/31 04:21:46;;;;;;;15.20;10.48;;;22.20;70.20;;;;;;5073303;28;20078;-61
2021/07/31 04:24:12;;;;;;;13.63;10.60;;;22.20;70.00;;;;;;5073225;28;20071;-61
2021/07/31 04:26:37;;;;;;;14.32;11.05;;;22.40;69.60;;;;;;5073093;28;20029;-62
2021/07/31 04:29:03;;;;;;;11.15;9.10;;;22.50;69.40;;;;;;5073240;28;20380;-63
2021/07/31 04:31:29;;;;;;;11.23;9.38;;;22.50;69.10;;;;;;5072883;28;20027;-62
2021/07/31 04:33:55;;;;;;;11.57;9.52;;;22.60;68.90;;;;;;5073389;28;20514;-62
2021/07/31 04:36:20;;;;;;;11.90;10.07;;;22.70;68.40;;;;;;5073082;28;20021;-62
2021/07/31 04:38:46;;;;;;;11.55;9.65;;;22.80;67.40;;;;;;5072638;28;20057;-62
2021/07/31 04:41:11;;;;;;;14.68;11.48;;;22.90;66.90;;;;;;5073228;28;20097;-62
2021/07/31 04:43:37;;;;;;;10.68;9.38;;;22.90;66.80;;;;;;5072987;28;20033;-62
2021/07/31 04:46:03;;;;;;;12.52;9.98;;;23.00;66.70;;;;;;5073227;28;20028;-64
2021/07/31 04:48:29;;;;;;;11.60;8.98;;;23.10;66.60;;;;;;5073091;28;20375;-63
2021/07/31 04:51:04;;;;;;;10.50;8.55;;;23.20;66.20;;;;;;5072768;28;20136;-62
2021/07/31 04:53:31;;;;;;;9.55;7.57;;;23.30;66.30;;;;;;5072761;28;20356;-62
2021/07/31 04:55:57;;;;;;;10.13;8.07;;;23.40;66.20;;;;;;5072634;28;20090;-62
2021/07/31 04:58:23;;;;;;;9.02;7.57;;;23.50;66.00;;;;;;5072657;28;20440;-62
2021/07/31 05:00:50;;;;;;;8.63;7.10;;;23.60;65.50;;;;;;5072636;28;20039;-63
2021/07/31 05:03:16;;;;;;;9.98;7.32;;;23.70;65.30;;;;;;5072634;28;20498;-63
2021/07/31 05:05:43;;;;;;;11.02;9.35;;;23.80;65.40;;;;;;5072442;28;20059;-61
2021/07/31 05:08:09;;;;;;;14.77;11.80;;;23.90;65.20;;;;;;5072577;28;20459;-63
2021/07/31 05:10:38;;;;;;;13.50;12.02;;;24.00;64.80;;;;;;5072675;28;20109;-63
2021/07/31 05:13:04;;;;;;;12.63;11.32;;;24.00;64.80;;;;;;5072409;28;20498;-62
2021/07/31 05:15:30;;;;;;;11.88;10.50;;;24.10;64.60;;;;;;5071439;28;20033;-63
2021/07/31 05:17:55;;;;;;;10.68;9.55;;;24.10;64.90;;;;;;5072189;28;20399;-63
2021/07/31 05:20:21;;;;;;;11.07;9.30;;;24.20;64.80;;;;;;5071953;28;20028;-62
2021/07/31 05:22:46;;;;;;;12.10;10.77;;;24.30;64.70;;;;;;5071748;28;20109;-64
2021/07/31 05:25:12;;;;;;;12.63;9.60;;;24.30;64.40;;;;;;5072365;28;20452;-63
2021/07/31 05:27:38;;;;;;;11.85;9.52;;;24.40;64.20;;;;;;5071959;28;20028;-63
2021/07/31 05:30:05;;;;;;;10.27;8.88;;;24.50;64.20;;;;;;5072033;28;20116;-62
2021/07/31 05:32:32;;;;;;;11.82;9.18;;;24.60;64.20;;;;;;5071826;28;20024;-62
2021/07/31 05:34:58;;;;;;;10.35;8.70;;;24.70;63.90;;;;;;5071817;28;20048;-63
2021/07/31 05:37:24;;;;;;;9.45;8.43;;;24.80;63.70;;;;;;5071576;28;20052;-62
2021/07/31 05:39:49;;;;;;;9.15;8.05;;;24.90;63.40;;;;;;5054011;28;20028;-62
2021/07/31 05:42:15;;;;;;;11.07;9.43;;;25.00;63.40;;;;;;5071786;28;20477;-63
2021/07/31 05:44:40;;;;;;;10.90;9.45;;;25.10;63.20;;;;;;5071988;28;20032;-62
2021/07/31 05:47:06;;;;;;;8.95;7.82;;;25.20;63.00;;;;;;5071613;28;20040;-62
2021/07/31 05:49:31;;;;;;;10.80;9.48;;;25.30;63.00;;;;;;5070827;28;20025;-63
2021/07/31 05:51:57;;;;;;;11.07;8.77;;;25.50;62.60;;;;;;5071551;28;20387;-63
2021/07/31 05:54:23;;;;;;;10.73;9.38;;;25.60;62.30;;;;;;5071764;28;20020;-63
2021/07/31 05:56:49;;;;;;;9.93;8.52;;;25.60;62.10;;;;;;5071989;28;20028;-61
2021/07/31 05:59:16;;;;;;;9.85;8.30;;;25.70;61.90;;;;;;5071877;28;20136;-62
2021/07/31 06:01:42;;;;;;;12.10;10.18;;;25.80;61.80;;;;;;5053987;28;20090;-62
2021/07/31 06:04:07;;;;;;;10.50;8.77;;;26.00;61.30;;;;;;5071413;28;20048;-63
2021/07/31 06:06:33;;;;;;;12.07;8.98;;;26.00;61.20;;;;;;5071153;28;20025;-63
2021/07/31 06:08:59;;;;;;;10.65;8.40;;;26.00;61.00;;;;;;5071365;28;20094;-64
2021/07/31 06:11:25;;;;;;;12.27;10.77;;;26.10;60.90;;;;;;5071362;28;20061;-63
2021/07/31 06:13:50;;;;;;;11.00;9.55;;;26.20;60.40;;;;;;5071482;28;20502;-64
2021/07/31 06:16:16;;;;;;;9.10;8.02;;;26.30;60.20;;;;;;5071497;28;20031;-63
2021/07/31 06:18:42;;;;;;;10.25;7.95;;;26.40;60.20;;;;;;5071099;28;20037;-62
2021/07/31 06:21:15;;;;;;;10.63;8.30;;;26.50;59.70;;;;;;5071148;28;20020;-62
2021/07/31 06:23:41;;;;;;;8.32;7.13;;;26.50;59.30;;;;;;5053405;28;20020;-62
2021/07/31 06:26:08;;;;;;;8.45;7.43;;;26.60;59.30;;;;;;5071234;28;20060;-61
2021/07/31 06:28:34;;;;;;;9.45;8.18;;;26.70;59.00;;;;;;5071107;28;20108;-62
2021/07/31 06:31:00;;;;;;;9.48;7.82;;;26.80;58.80;;;;;;5071096;28;20103;-62
2021/07/31 06:33:25;;;;;;;9.65;7.32;;;26.90;58.10;;;;;;5071077;28;20046;-62
2021/07/31 06:35:51;;;;;;;9.77;7.90;;;27.00;58.00;;;;;;5071010;28;20456;-62
2021/07/31 06:38:17;;;;;;;9.35;7.53;;;27.20;57.30;;;;;;5070955;28;20025;-62
2021/07/31 06:40:43;;;;;;;9.48;7.30;;;27.30;57.00;;;;;;5071239;28;20383;-64
2021/07/31 06:43:09;;;;;;;9.07;7.20;;;27.40;57.10;;;;;;5070865;28;20024;-61
2021/07/31 06:45:34;;;;;;;9.65;7.97;;;27.50;56.40;;;;;;5070859;28;20024;-63
2021/07/31 06:48:00;;;;;;;9.07;6.88;;;27.60;55.70;;;;;;5070924;28;20028;-62
2021/07/31 06:50:26;;;;;;;7.60;6.20;;;27.70;55.60;;;;;;5069711;28;20131;-63
2021/07/31 06:52:52;;;;;;;7.85;6.63;;;27.80;55.70;;;;;;5070729;28;20020;-63
2021/07/31 06:55:17;;;;;;;9.85;7.70;;;27.90;55.90;;;;;;5070729;28;20017;-64
2021/07/31 06:57:43;;;;;;;10.48;7.63;;;28.00;56.10;;;;;;5070915;28;20141;-63
2021/07/31 07:00:09;;;;;;;9.75;8.13;;;28.10;56.40;;;;;;5071699;28;20357;-64
2021/07/31 07:02:35;;;;;;;8.98;7.57;;;28.20;56.20;;;;;;5075030;28;20519;-64
2021/07/31 07:05:02;;;;;;;11.05;7.88;;;28.20;55.50;;;;;;5074518;28;20116;-63
2021/07/31 07:07:28;;;;;;;8.88;7.97;;;28.30;55.30;;;;;;5074426;28;20490;-63
2021/07/31 07:09:53;;;;;;;8.55;6.53;;;28.30;55.20;;;;;;5074561;28;20059;-62
2021/07/31 07:12:19;;;;;;;8.43;7.05;;;28.40;55.50;;;;;;5074168;28;20028;-61
2021/07/31 07:14:45;;;;;;;8.88;7.43;;;28.40;55.30;;;;;;5074391;28;20021;-63
2021/07/31 07:17:10;;;;;;;8.20;5.95;;;28.50;55.30;;;;;;5074491;28;20028;-63
2021/07/31 07:19:36;;;;;;;7.10;6.00;;;28.60;55.50;;;;;;5074367;28;20032;-63
2021/07/31 07:22:02;;;;;;;8.80;6.53;;;28.70;55.10;;;;;;5074383;28;20028;-62
2021/07/31 07:24:27;;;;;;;9.75;7.20;;;28.90;55.00;;;;;;5074430;28;20074;-62
2021/07/31 07:26:53;;;;;;;7.53;6.22;;;29.00;54.80;;;;;;5074218;28;20559;-63
2021/07/31 07:29:19;;;;;;;7.57;6.20;;;29.10;54.50;;;;;;5074388;28;20028;-64
2021/07/31 07:31:44;;;;;;;8.02;6.70;;;29.30;54.70;;;;;;5074523;28;20060;-65
2021/07/31 07:34:10;;;;;;;7.82;6.53;;;29.40;55.10;;;;;;5074088;28;20070;-64
2021/07/31 07:36:35;;;;;;;8.98;6.20;;;29.50;55.60;;;;;;5074434;28;20395;-63
2021/07/31 07:39:01;;;;;;;7.53;5.80;;;29.50;55.90;;;;;;5074280;28;20033;-64
2021/07/31 07:41:27;;;;;;;6.82;5.45;;;29.60;56.10;;;;;;5074445;28;20031;-64
2021/07/31 07:43:52;;;;;;;7.10;5.63;;;29.80;56.30;;;;;;5074553;28;20029;-61
2021/07/31 07:46:18;;;;;;;8.07;6.25;;;29.90;56.40;;;;;;5073537;28;20058;-64
2021/07/31 07:48:45;;;;;;;15.88;6.70;;;30.10;57.10;;;;;;5073358;28;20033;-64
2021/07/31 07:51:11;;;;;;;8.38;7.47;;;30.20;56.60;;;;;;5090519;28;20056;-63
2021/07/31 07:53:37;;;;;;;9.80;7.38;;;30.30;56.70;;;;;;5088243;28;20127;-63
2021/07/31 07:56:03;;;;;;;8.07;7.00;;;30.50;57.00;;;;;;5056171;28;20049;-63
2021/07/31 07:58:29;;;;;;;7.57;6.65;;;30.60;57.00;;;;;;5073698;28;20037;-63
2021/07/31 08:00:55;;;;;;;8.40;7.10;;;30.70;57.20;;;;;;5073247;28;20028;-62
2021/07/31 08:03:20;;;;;;;8.95;7.35;;;31.00;57.00;;;;;;5073787;28;20032;-63
2021/07/31 08:05:46;;;;;;;9.00;8.10;;;31.20;56.70;;;;;;5073496;28;20056;-63
2021/07/31 08:08:12;;;;;;;8.20;7.10;;;31.40;55.70;;;;;;5073275;28;20028;-63
2021/07/31 08:10:38;;;;;;;9.80;7.00;;;31.40;55.40;;;;;;5073454;28;20383;-64
2021/07/31 08:13:04;;;;;;;6.95;5.95;;;31.50;55.60;;;;;;5079069;28;20115;-64
2021/07/31 08:15:30;;;;;;;7.85;5.90;;;31.70;55.80;;;;;;5068686;28;20569;-63
2021/07/31 08:17:56;;;;;;;7.47;5.82;;;32.10;55.70;;;;;;5071115;28;20036;-63
2021/07/31 08:20:22;;;;;;;7.97;6.32;;;32.40;55.30;;;;;;5072555;28;20055;-64
2021/07/31 08:22:48;;;;;;;7.65;6.10;;;32.80;54.30;;;;;;5072803;28;20036;-65
2021/07/31 08:25:14;;;;;;;6.15;5.47;;;33.10;53.90;;;;;;5072584;28;20033;-64
2021/07/31 08:27:40;;;;;;;6.93;4.80;;;33.40;53.20;;;;;;5072563;28;20035;-64
2021/07/31 08:30:07;;;;;;;6.40;5.00;;;33.70;52.80;;;;;;5073490;28;20038;-65
2021/07/31 08:32:33;;;;;;;7.13;4.80;;;33.90;53.00;;;;;;5073470;28;20024;-64
2021/07/31 08:35:02;;;;;;;5.75;4.60;;;34.30;52.10;;;;;;5073042;28;20024;-64
2021/07/31 08:37:28;;;;;;;6.57;4.85;;;34.60;51.80;;;;;;5071924;28;20407;-64
2021/07/31 08:39:54;;;;;;;5.43;4.22;;;34.90;50.80;;;;;;5073179;28;20029;-63
2021/07/31 08:42:20;;;;;;;6.30;4.05;;;35.20;50.50;;;;;;5054805;28;20501;-63
2021/07/31 08:44:46;;;;;;;5.10;4.00;;;35.30;50.10;;;;;;5072787;28;20028;-63
2021/07/31 08:47:13;;;;;;;5.93;4.13;;;35.40;49.20;;;;;;5072874;28;20036;-63
2021/07/31 08:49:43;;;;;;;5.50;3.88;;;35.40;48.70;;;;;;5072719;28;20063;-63
2021/07/31 08:52:09;;;;;;;6.03;3.92;;;35.50;48.70;;;;;;5073221;28;20021;-63
2021/07/31 08:54:38;;;;;;;5.18;3.78;;;35.50;48.50;;;;;;5072863;28;20028;-63
2021/07/31 08:57:05;;;;;;;5.60;3.67;;;35.50;47.80;;;;;;5072798;28;20059;-63
2021/07/31 08:59:30;;;;;;;6.10;4.32;;;35.50;48.30;;;;;;5072531;28;20483;-62
2021/07/31 09:01:56;;;;;;;5.45;4.18;;;35.90;48.00;;;;;;5071576;28;20032;-64
2021/07/31 09:04:23;;;;;;;5.20;3.78;;;36.20;47.70;;;;;;5072353;28;20060;-63
2021/07/31 09:06:49;;;;;;;5.10;3.58;;;36.40;47.70;;;;;;5072109;28;20024;-65
2021/07/31 09:09:27;;;;;;;5.05;3.58;;;36.70;47.20;;;;;;5072105;28;20029;-64
2021/07/31 09:12:02;;;;;;;6.05;4.80;;;36.80;46.70;;;;;;5071868;28;20031;-63
2021/07/31 09:14:28;;;;;;;7.38;5.22;;;36.60;46.50;;;;;;5070879;28;20025;-64
2021/07/31 09:16:55;;;;;;;6.88;4.47;;;36.60;46.70;;;;;;5072290;28;20032;-63
2021/07/31 09:19:21;;;;;;;5.28;4.25;;;36.60;46.00;;;;;;5071585;28;20111;-65
2021/07/31 09:21:49;;;;;;;5.20;3.80;;;36.60;46.50;;;;;;5072059;28;20103;-63
2021/07/31 09:24:15;;;;;;;5.35;3.88;;;36.50;45.40;;;;;;5072322;28;20047;-65
2021/07/31 09:26:48;;;;;;;4.90;3.55;;;36.50;46.10;;;;;;5072057;28;20028;-63
2021/07/31 09:29:15;;;;;;;5.97;3.80;;;36.70;46.20;;;;;;5072269;28;20089;-64
2021/07/31 09:31:51;;;;;;;5.63;4.03;;;37.00;46.10;;;;;;5072129;28;20021;-63
2021/07/31 09:34:27;;;;;;;5.63;4.18;;;37.40;45.10;;;;;;5072183;28;20020;-64
2021/07/31 09:37:04;;;;;;;4.90;3.60;;;37.90;45.00;;;;;;5071939;28;20024;-64
2021/07/31 09:39:52;;;;;;;5.57;3.90;;;38.30;44.50;;;;;;5071882;28;20524;-64
2021/07/31 09:42:28;;;;;;;6.03;3.85;;;38.70;44.00;;;;;;5071965;28;20100;-64
2021/07/31 09:44:55;;;;;;;5.90;3.60;;;39.20;43.40;;;;;;5072112;28;20059;-63
2021/07/31 09:47:21;;;;;;;5.25;3.90;;;39.50;44.20;;;;;;5071750;28;20055;-64
2021/07/31 09:49:47;;;;;;;5.18;3.80;;;40.00;43.40;;;;;;5071710;28;20115;-64
2021/07/31 09:52:23;;;;;;;5.03;3.30;;;40.40;42.80;;;;;;5071775;28;20020;-65
2021/07/31 09:54:50;;;;;;;5.80;3.88;;;40.70;41.70;;;;;;5071649;28;20056;-64
2021/07/31 09:57:16;;;;;;;5.22;3.55;;;40.90;41.00;;;;;;5071727;28;20540;-63
2021/07/31 09:59:46;;;;;;;5.03;3.13;;;40.90;41.30;;;;;;5071945;28;20139;-64
2021/07/31 10:02:18;;;;;;;6.72;3.50;;;41.10;41.20;;;;;;5071395;28;20414;-64
2021/07/31 10:04:45;;;;;;;5.13;3.50;;;41.40;40.80;;;;;;5071426;28;20053;-65
2021/07/31 10:07:13;;;;;;;5.07;3.50;;;41.50;40.70;;;;;;5071641;28;20047;-64
2021/07/31 10:09:41;;;;;;;4.68;3.13;;;41.60;39.70;;;;;;5071452;28;20024;-65
2021/07/31 10:12:10;;;;;;;4.88;3.22;;;41.40;39.60;;;;;;5071243;28;20487;-65
2021/07/31 10:14:38;;;;;;;4.40;2.70;;;41.10;40.00;;;;;;5071397;28;20017;-63
2021/07/31 10:17:04;;;;;;;4.40;2.90;;;40.70;39.70;;;;;;5071565;28;20108;-63
2021/07/31 10:19:39;;;;;;;5.40;3.15;;;40.40;40.00;;;;;;5071242;28;20543;-63
2021/07/31 10:22:04;;;;;;;4.50;3.20;;;40.40;38.90;;;;;;5071438;28;20107;-63
2021/07/31 10:25:10;;;;;;;5.57;3.38;;;40.70;39.60;;;;;;5071453;28;20100;-64
2021/07/31 10:27:36;;;;;;;4.07;2.80;;;41.10;38.30;;;;;;5070893;28;20037;-63
2021/07/31 10:30:04;;;;;;;4.25;2.75;;;41.50;39.50;;;;;;5071186;28;20024;-64
2021/07/31 10:32:38;;;;;;;4.65;3.00;;;42.00;39.00;;;;;;5071329;28;20086;-64
2021/07/31 10:35:22;;;;;;;4.85;2.88;;;42.30;38.70;;;;;;5073478;28;20027;-64
2021/07/31 10:37:49;;;;;;;5.25;2.75;;;42.40;38.00;;;;;;5077773;28;20025;-64
2021/07/31 10:40:26;;;;;;;5.20;2.60;;;42.50;38.20;;;;;;5078033;28;20074;-65
2021/07/31 10:42:52;;;;;;;4.60;2.75;;;42.70;37.70;;;;;;5077797;28;20102;-65
2021/07/31 10:45:25;;;;;;;4.45;3.00;;;43.00;38.10;;;;;;5077856;28;20492;-64
2021/07/31 10:47:55;;;;;;;5.47;2.80;;;43.50;37.20;;;;;;5077940;28;20028;-64
2021/07/31 10:50:27;;;;;;;4.68;2.55;;;43.70;37.30;;;;;;5077775;28;20024;-64
2021/07/31 10:53:02;;;;;;;3.85;2.40;;;44.00;37.30;;;;;;5077520;28;20042;-63
2021/07/31 10:55:37;;;;;;;4.60;3.10;;;44.30;37.10;;;;;;5077804;28;20480;-63
2021/07/31 10:58:21;;;;;;;4.75;2.60;;;44.50;36.30;;;;;;5077714;28;20025;-63
2021/07/31 11:01:13;;;;;;;3.50;2.30;;;44.70;35.70;;;;;;5077565;28;20077;-64
2021/07/31 11:03:40;;;;;;;3.85;2.45;;;44.80;36.10;;;;;;5077400;28;20382;-64
2021/07/31 11:06:06;;;;;;;4.07;2.50;;;45.00;36.50;;;;;;5077837;28;20036;-64
2021/07/31 11:08:33;;;;;;;4.75;2.78;;;45.10;35.90;;;;;;5077376;28;20029;-62
2021/07/31 11:11:20;;;;;;;4.68;2.78;;;45.30;35.60;;;;;;5077590;28;20016;-64
2021/07/31 11:13:46;;;;;;;4.45;2.55;;;45.40;35.20;;;;;;5077582;28;20021;-65
2021/07/31 11:16:15;;;;;;;4.50;2.90;;;45.20;35.30;;;;;;5077804;28;20097;-64
2021/07/31 11:18:43;;;;;;;4.65;2.30;;;45.00;34.60;;;;;;5077353;28;20039;-63
2021/07/31 11:21:22;;;;;;;5.07;2.50;;;44.30;34.80;;;;;;5077429;28;20513;-64
2021/07/31 11:23:55;;;;;;;3.60;2.30;;;43.90;35.10;;;;;;5077887;28;20111;-64
2021/07/31 11:26:44;;;;;;;4.28;2.40;;;44.00;35.80;;;;;;5077409;28;20024;-64
2021/07/31 11:29:23;;;;;;;4.38;2.50;;;44.40;35.30;;;;;;5077263;28;20020;-64
2021/07/31 11:32:11;;;;;;;4.60;2.80;;;44.80;35.00;;;;;;5077250;28;20035;-63
2021/07/31 11:34:38;;;;;;;4.18;2.67;;;45.10;34.70;;;;;;5077435;28;20032;-64
2021/07/31 11:37:04;;;;;;;4.00;2.63;;;45.40;34.70;;;;;;5077426;28;20324;-63
2021/07/31 11:39:30;;;;;;;4.72;3.13;;;45.60;34.60;;;;;;5077237;28;20025;-64
2021/07/31 11:41:58;;;;;;;3.95;2.58;;;46.00;34.50;;;;;;5077473;28;20031;-65
2021/07/31 11:44:29;;;;;;;4.10;2.53;;;46.20;34.60;;;;;;5077413;28;20051;-64
2021/07/31 11:46:55;;;;;;;4.13;2.58;;;46.50;34.60;;;;;;5075442;28;20100;-64
2021/07/31 11:49:29;;;;;;;5.75;2.80;;;46.70;34.20;;;;;;5073860;28;20138;-64
2021/07/31 11:51:57;;;;;;;5.68;2.35;;;46.80;34.10;;;;;;5073907;28;20070;-65
2021/07/31 11:54:24;;;;;;;3.80;2.60;;;46.90;34.00;;;;;;5073706;28;20032;-64
2021/07/31 11:56:51;;;;;;;4.07;2.70;;;46.90;33.60;;;;;;5073777;28;20024;-64
2021/07/31 11:59:30;;;;;;;4.47;2.50;;;46.80;33.50;;;;;;5074048;28;20048;-64
2021/07/31 12:01:56;;;;;;;4.80;2.50;;;46.90;32.90;;;;;;5073809;28;20420;-64
2021/07/31 12:04:42;;;;;;;3.80;2.20;;;47.20;33.50;;;;;;5073618;28;20434;-63
2021/07/31 12:07:13;;;;;;;4.05;2.45;;;47.30;32.70;;;;;;5073610;28;20031;-63
2021/07/31 12:09:40;;;;;;;4.25;2.60;;;46.80;33.20;;;;;;5073688;28;20379;-63
2021/07/31 12:12:22;;;;;;;3.72;2.33;;;46.50;33.40;;;;;;5073674;28;20028;-63
2021/07/31 12:15:10;;;;;;;4.32;2.75;;;46.50;33.10;;;;;;5073692;28;20400;-64
2021/07/31 12:17:42;;;;;;;3.90;2.55;;;46.70;32.80;;;;;;5074041;28;20036;-63
2021/07/31 12:20:08;;;;;;;4.10;2.40;;;46.90;33.50;;;;;;5073455;28;20027;-64
2021/07/31 12:22:35;;;;;;;4.88;2.60;;;47.20;33.50;;;;;;5073413;28;20021;-63
2021/07/31 12:25:05;;;;;;;4.38;2.65;;;47.50;33.10;;;;;;5073312;28;20036;-63
2021/07/31 12:27:53;;;;;;;3.85;2.35;;;47.80;32.90;;;;;;5055321;28;20036;-63
2021/07/31 12:30:30;;;;;;;3.67;2.20;;;48.00;32.20;;;;;;5073342;28;20029;-64
2021/07/31 12:32:58;;;;;;;4.30;2.45;;;48.00;32.20;;;;;;5073165;28;20360;-63
2021/07/31 12:35:43;;;;;;;3.38;2.30;;;48.10;32.40;;;;;;5071983;28;20095;-64
2021/07/31 12:38:13;;;;;;;4.32;2.40;;;48.30;32.00;;;;;;5072868;28;20029;-63
2021/07/31 12:40:39;;;;;;;4.47;2.25;;;48.30;32.30;;;;;;5072691;28;20029;-64